Oglasa — ITMG — position and weather

sailwx.info

Track history (hours):
 
Tides and Currents Weather Stations Pressure Air Temp Water Temp Dewpoint Dewpoint Depression Visibility Wind Speed Wind Dir Waves Ship Positions

Oglasa

Last reported at 2017-Oct-19 14:51 UTC. Time now 2017-Oct-19 15:16 UTC.
Position N 42°55' E 010°33'.

Length 91 m; draft 3.8 m.

Type: Ship. MMSI: 247046800.

Date/timePositionNaut miles runAvg speedWind from/ knotsBaromVisibWave heightAir tempDewpointWater temp
2017-Oct-19 14:51N 42°55' E 010°33'11 1.9
2017-Oct-19 08:55N 42°49' E 010°20'8 0.4
2017-Oct-18 13:43N 42°54' E 010°30'1 0.3
2017-Oct-18 10:19N 42°54' E 010°31'516.0
2017-Oct-18 10:00N 42°53' E 010°24'5 4.9
2017-Oct-18 08:58N 42°49' E 010°20'12 5.9
2017-Oct-18 06:56N 42°55' E 010°34'615.1
2017-Oct-18 06:30N 42°53' E 010°26'6 5.6
2017-Oct-18 05:26N 42°49' E 010°20'12 8.5
2017-Oct-18 03:59N 42°56' E 010°34'715.1
2017-Oct-18 03:30N 42°53' E 010°25'611.0
2017-Oct-18 02:59N 42°49' E 010°19'0 0.0
2017-Oct-18 01:41N 42°49' E 010°19'0 0.0
2017-Oct-18 01:17N 42°49' E 010°19'0 0.0
2017-Oct-18 00:47N 42°49' E 010°19'0 0.0
2017-Oct-17 15:44N 42°49' E 010°19'2 8.1
2017-Oct-17 15:30N 42°50' E 010°21'815.3
2017-Oct-17 15:01N 42°54' E 010°30'3 4.9
2017-Oct-17 14:29N 42°56' E 010°33'0 0.7
2017-Oct-17 14:01N 42°56' E 010°33'612.8
2017-Oct-17 13:31N 42°53' E 010°26'6 8.4
2017-Oct-17 12:47N 42°49' E 010°19'0 0.0
2017-Oct-17 12:30N 42°49' E 010°19'713.5
2017-Oct-17 12:01N 42°53' E 010°26'4 2.4
2017-Oct-17 10:17N 42°54' E 010°32'516.3
2017-Oct-17 10:01N 42°53' E 010°26'6 9.9
2017-Oct-17 09:23N 42°49' E 010°19'0 0.4
2017-Oct-17 08:57N 42°49' E 010°20'1215.1
2017-Oct-17 08:11N 42°55' E 010°33'1 0.9
2017-Oct-17 07:01N 42°56' E 010°33'1 9.7
2017-Oct-17 06:56N 42°55' E 010°34'815.5
2017-Oct-17 06:27N 42°53' E 010°24'5 7.0
2017-Oct-17 05:41N 42°49' E 010°19'0 1.4
2017-Oct-17 05:27N 42°49' E 010°20'715.2
2017-Oct-17 05:01N 42°53' E 010°26'5 6.4
2017-Oct-17 04:10N 42°56' E 010°33'1 4.5
2017-Oct-17 04:00N 42°56' E 010°34'713.5
2017-Oct-17 03:30N 42°53' E 010°25'6 0.5
2017-Oct-16 15:42N 42°49' E 010°19'2 8.3
2017-Oct-16 15:30N 42°50' E 010°21'815.3
2017-Oct-16 15:01N 42°54' E 010°30'4 3.5
2017-Oct-16 14:00N 42°56' E 010°34'714.4
2017-Oct-16 13:31N 42°53' E 010°25'6 5.6
2017-Oct-16 12:29N 42°49' E 010°19'714.1
2017-Oct-16 12:00N 42°53' E 010°26'5 2.8
2017-Oct-16 10:22N 42°54' E 010°32'616.2
2017-Oct-16 10:00N 42°53' E 010°25'611.1
2017-Oct-16 09:30N 42°49' E 010°19'0 0.6
2017-Oct-16 08:56N 42°49' E 010°20'715.4
2017-Oct-16 08:30N 42°53' E 010°26'5 3.0
2017-Oct-16 06:53N 42°54' E 010°33'616.1
2017-Oct-16 06:30N 42°53' E 010°25'6 5.9
2017-Oct-16 05:33N 42°49' E 010°19'0 3.3
2017-Oct-16 05:28N 42°49' E 010°20'715.1
2017-Oct-16 05:00N 42°53' E 010°27'5 5.6
2017-Oct-16 04:03N 42°56' E 010°33'113.2
2017-Oct-16 04:00N 42°56' E 010°34'814.4
2017-Oct-16 03:25N 42°52' E 010°24'5 0.4
2017-Oct-15 15:39N 42°49' E 010°19'211.5
2017-Oct-15 15:30N 42°50' E 010°21'815.2
2017-Oct-15 14:57N 42°54' E 010°31'3 2.7
2017-Oct-15 14:00N 42°56' E 010°33'713.3
2017-Oct-15 13:30N 42°53' E 010°25'3 2.7
2017-Oct-15 12:17N 42°51' E 010°22'8 4.2
2017-Oct-15 10:19N 42°54' E 010°32'516.3
2017-Oct-15 10:00N 42°53' E 010°26'4 3.5
2017-Oct-15 08:51N 42°50' E 010°22'1015.4
2017-Oct-15 08:10N 42°56' E 010°34'2 1.2
2017-Oct-15 06:50N 42°54' E 010°32'516.1
2017-Oct-15 06:30N 42°53' E 010°25'5 4.7
2017-Oct-15 05:24N 42°49' E 010°21'10 6.7
2017-Oct-15 03:51N 42°54' E 010°33'616.3
2017-Oct-15 03:30N 42°53' E 010°25'6 0.5
2017-Oct-14 15:35N 42°49' E 010°20'116.2
2017-Oct-14 15:30N 42°50' E 010°21'1114.8
2017-Oct-14 14:45N 42°56' E 010°34'2 2.2
2017-Oct-14 13:50N 42°54' E 010°32'516.2
2017-Oct-14 13:30N 42°53' E 010°25'6 5.5
2017-Oct-14 12:26N 42°49' E 010°20'13 6.4
2017-Oct-14 10:29N 42°56' E 010°34'715.0
2017-Oct-14 10:00N 42°53' E 010°25'5 4.9
2017-Oct-14 08:55N 42°49' E 010°20'10 5.0
2017-Oct-14 06:49N 42°54' E 010°32'516.0
2017-Oct-14 06:30N 42°53' E 010°26'6 5.3
2017-Oct-14 05:25N 42°49' E 010°20'12 8.3
2017-Oct-14 03:57N 42°55' E 010°34'915.3
2017-Oct-14 03:21N 42°51' E 010°23'4 0.3
2017-Oct-13 15:41N 42°49' E 010°19'412.3
2017-Oct-13 15:24N 42°51' E 010°23'815.4
2017-Oct-13 14:52N 42°55' E 010°33'1 0.7
2017-Oct-13 13:50N 42°54' E 010°32'616.1
2017-Oct-13 13:29N 42°53' E 010°25'5 5.1
2017-Oct-13 12:25N 42°49' E 010°20'715.7
2017-Oct-13 12:00N 42°53' E 010°27'4 2.6
2017-Oct-13 10:21N 42°54' E 010°33'8 2.1
2017-Oct-13 06:17N 42°51' E 010°22'9 3.5
2017-Oct-13 03:51N 42°54' E 010°33'1 0.0
2017-Oct-12 03:56N 42°55' E 010°34'12 0.4
2017-Oct-10 22:59N 42°49' E 010°19'0 0.0
2017-Oct-10 15:40N 42°49' E 010°19'210.0
2017-Oct-10 15:31N 42°50' E 010°21'915.3
2017-Oct-10 14:53N 42°55' E 010°32'1 0.6
2017-Oct-10 13:51N 42°54' E 010°33'616.1
2017-Oct-10 13:30N 42°53' E 010°25'6 6.6
2017-Oct-10 12:35N 42°49' E 010°19'1 6.8
2017-Oct-10 12:30N 42°49' E 010°20'1115.1
2017-Oct-10 11:45N 42°55' E 010°33'  
Track history (hours):
 
Tides and Currents Weather Stations Pressure Air Temp Water Temp Dewpoint Dewpoint Depression Visibility Wind Speed Wind Dir Waves Ship Positions

Oglasa

Last reported at 2017-Oct-19 14:51 UTC. Time now 2017-Oct-19 15:16 UTC.
Position N 42°55' E 010°33'.

Length 91 m; draft 3.8 m.

Type: Ship. MMSI: 247046800.

Date/timePositionNaut miles runAvg speedWind from/ knotsBaromVisibWave heightAir tempDewpointWater temp
2017-Oct-19 14:51N 42°55' E 010°33'11 1.9
2017-Oct-19 08:55N 42°49' E 010°20'8 0.4
2017-Oct-18 13:43N 42°54' E 010°30'1 0.3
2017-Oct-18 10:19N 42°54' E 010°31'516.0
2017-Oct-18 10:00N 42°53' E 010°24'5 4.9
2017-Oct-18 08:58N 42°49' E 010°20'12 5.9
2017-Oct-18 06:56N 42°55' E 010°34'615.1
2017-Oct-18 06:30N 42°53' E 010°26'6 5.6
2017-Oct-18 05:26N 42°49' E 010°20'12 8.5
2017-Oct-18 03:59N 42°56' E 010°34'715.1
2017-Oct-18 03:30N 42°53' E 010°25'611.0
2017-Oct-18 02:59N 42°49' E 010°19'0 0.0
2017-Oct-18 01:41N 42°49' E 010°19'0 0.0
2017-Oct-18 01:17N 42°49' E 010°19'0 0.0
2017-Oct-18 00:47N 42°49' E 010°19'0 0.0
2017-Oct-17 15:44N 42°49' E 010°19'2 8.1
2017-Oct-17 15:30N 42°50' E 010°21'815.3
2017-Oct-17 15:01N 42°54' E 010°30'3 4.9
2017-Oct-17 14:29N 42°56' E 010°33'0 0.7
2017-Oct-17 14:01N 42°56' E 010°33'612.8
2017-Oct-17 13:31N 42°53' E 010°26'6 8.4
2017-Oct-17 12:47N 42°49' E 010°19'0 0.0
2017-Oct-17 12:30N 42°49' E 010°19'713.5
2017-Oct-17 12:01N 42°53' E 010°26'4 2.4
2017-Oct-17 10:17N 42°54' E 010°32'516.3
2017-Oct-17 10:01N 42°53' E 010°26'6 9.9
2017-Oct-17 09:23N 42°49' E 010°19'0 0.4
2017-Oct-17 08:57N 42°49' E 010°20'1215.1
2017-Oct-17 08:11N 42°55' E 010°33'1 0.9
2017-Oct-17 07:01N 42°56' E 010°33'1 9.7
2017-Oct-17 06:56N 42°55' E 010°34'815.5
2017-Oct-17 06:27N 42°53' E 010°24'5 7.0
2017-Oct-17 05:41N 42°49' E 010°19'0 1.4
2017-Oct-17 05:27N 42°49' E 010°20'715.2
2017-Oct-17 05:01N 42°53' E 010°26'5 6.4
2017-Oct-17 04:10N 42°56' E 010°33'1 4.5
2017-Oct-17 04:00N 42°56' E 010°34'713.5
2017-Oct-17 03:30N 42°53' E 010°25'6 0.5
2017-Oct-16 15:42N 42°49' E 010°19'2 8.3
2017-Oct-16 15:30N 42°50' E 010°21'815.3
2017-Oct-16 15:01N 42°54' E 010°30'4 3.5
2017-Oct-16 14:00N 42°56' E 010°34'714.4
2017-Oct-16 13:31N 42°53' E 010°25'6 5.6
2017-Oct-16 12:29N 42°49' E 010°19'714.1
2017-Oct-16 12:00N 42°53' E 010°26'5 2.8
2017-Oct-16 10:22N 42°54' E 010°32'616.2
2017-Oct-16 10:00N 42°53' E 010°25'611.1
2017-Oct-16 09:30N 42°49' E 010°19'0 0.6
2017-Oct-16 08:56N 42°49' E 010°20'715.4
2017-Oct-16 08:30N 42°53' E 010°26'5 3.0
2017-Oct-16 06:53N 42°54' E 010°33'616.1
2017-Oct-16 06:30N 42°53' E 010°25'6 5.9
2017-Oct-16 05:33N 42°49' E 010°19'0 3.3
2017-Oct-16 05:28N 42°49' E 010°20'715.1
2017-Oct-16 05:00N 42°53' E 010°27'5 5.6
2017-Oct-16 04:03N 42°56' E 010°33'113.2
2017-Oct-16 04:00N 42°56' E 010°34'814.4
2017-Oct-16 03:25N 42°52' E 010°24'5 0.4
2017-Oct-15 15:39N 42°49' E 010°19'211.5
2017-Oct-15 15:30N 42°50' E 010°21'815.2
2017-Oct-15 14:57N 42°54' E 010°31'3 2.7
2017-Oct-15 14:00N 42°56' E 010°33'713.3
2017-Oct-15 13:30N 42°53' E 010°25'3 2.7
2017-Oct-15 12:17N 42°51' E 010°22'8 4.2
2017-Oct-15 10:19N 42°54' E 010°32'516.3
2017-Oct-15 10:00N 42°53' E 010°26'4 3.5
2017-Oct-15 08:51N 42°50' E 010°22'1015.4
2017-Oct-15 08:10N 42°56' E 010°34'2 1.2
2017-Oct-15 06:50N 42°54' E 010°32'516.1
2017-Oct-15 06:30N 42°53' E 010°25'5 4.7
2017-Oct-15 05:24N 42°49' E 010°21'10 6.7
2017-Oct-15 03:51N 42°54' E 010°33'616.3
2017-Oct-15 03:30N 42°53' E 010°25'6 0.5
2017-Oct-14 15:35N 42°49' E 010°20'116.2
2017-Oct-14 15:30N 42°50' E 010°21'1114.8
2017-Oct-14 14:45N 42°56' E 010°34'2 2.2
2017-Oct-14 13:50N 42°54' E 010°32'516.2
2017-Oct-14 13:30N 42°53' E 010°25'6 5.5
2017-Oct-14 12:26N 42°49' E 010°20'13 6.4
2017-Oct-14 10:29N 42°56' E 010°34'715.0
2017-Oct-14 10:00N 42°53' E 010°25'5 4.9
2017-Oct-14 08:55N 42°49' E 010°20'10 5.0
2017-Oct-14 06:49N 42°54' E 010°32'516.0
2017-Oct-14 06:30N 42°53' E 010°26'6 5.3
2017-Oct-14 05:25N 42°49' E 010°20'12 8.3
2017-Oct-14 03:57N 42°55' E 010°34'915.3
2017-Oct-14 03:21N 42°51' E 010°23'4 0.3
2017-Oct-13 15:41N 42°49' E 010°19'412.3
2017-Oct-13 15:24N 42°51' E 010°23'815.4
2017-Oct-13 14:52N 42°55' E 010°33'1 0.7
2017-Oct-13 13:50N 42°54' E 010°32'616.1
2017-Oct-13 13:29N 42°53' E 010°25'5 5.1
2017-Oct-13 12:25N 42°49' E 010°20'715.7
2017-Oct-13 12:00N 42°53' E 010°27'4 2.6
2017-Oct-13 10:21N 42°54' E 010°33'8 2.1
2017-Oct-13 06:17N 42°51' E 010°22'9 3.5
2017-Oct-13 03:51N 42°54' E 010°33'1 0.0
2017-Oct-12 03:56N 42°55' E 010°34'12 0.4
2017-Oct-10 22:59N 42°49' E 010°19'0 0.0
2017-Oct-10 15:40N 42°49' E 010°19'210.0
2017-Oct-10 15:31N 42°50' E 010°21'915.3
2017-Oct-10 14:53N 42°55' E 010°32'1 0.6
2017-Oct-10 13:51N 42°54' E 010°33'616.1
2017-Oct-10 13:30N 42°53' E 010°25'6 6.6
2017-Oct-10 12:35N 42°49' E 010°19'1 6.8
2017-Oct-10 12:30N 42°49' E 010°20'1115.1
2017-Oct-10 11:45N 42°55' E 010°33'  

Dump ship's entire track history